createdAt,value
2017-09-01T00:01:23.710Z,3.70
2017-09-01T00:03:49.794Z,3.92
2017-09-01T00:06:15.847Z,3.65
2017-09-01T00:08:41.860Z,3.30
2017-09-01T00:11:08.054Z,3.60
2017-09-01T00:13:34.116Z,3.50
2017-09-01T00:16:00.155Z,3.67
2017-09-01T00:18:26.533Z,3.30
2017-09-01T00:20:52.662Z,3.60
2017-09-01T00:23:18.686Z,3.80
2017-09-01T00:25:44.754Z,3.85
2017-09-01T00:28:11.592Z,3.40
2017-09-01T00:30:37.646Z,3.70
2017-09-01T00:33:03.728Z,3.60
2017-09-01T00:35:29.795Z,3.40
2017-09-01T00:37:55.886Z,3.80
2017-09-01T00:40:21.962Z,3.50
2017-09-01T00:42:47.978Z,3.35
2017-09-01T00:45:14.065Z,3.50
2017-09-01T00:47:40.107Z,3.60
2017-09-01T00:50:06.153Z,3.50
2017-09-01T00:52:32.485Z,3.90
2017-09-01T00:54:58.518Z,3.60
2017-09-01T00:57:24.653Z,4.10
2017-09-01T00:59:50.883Z,4.00
2017-09-01T01:02:16.934Z,4.05
2017-09-01T01:04:43.011Z,3.90
2017-09-01T01:07:09.111Z,3.40
2017-09-01T01:09:35.173Z,3.67
2017-09-01T01:12:01.190Z,3.60
2017-09-01T01:14:27.298Z,3.60
2017-09-01T01:16:53.326Z,3.78
2017-09-01T01:19:19.358Z,3.70
2017-09-01T01:21:45.421Z,3.50
2017-09-01T01:24:11.457Z,3.50
2017-09-01T01:26:37.590Z,3.90
2017-09-01T01:29:03.665Z,3.50
2017-09-01T01:31:29.694Z,3.75
2017-09-01T01:33:55.715Z,3.87
2017-09-01T01:36:21.978Z,3.70
2017-09-01T01:38:48.048Z,3.75
2017-09-01T01:41:14.119Z,3.97
2017-09-01T01:43:40.303Z,3.90
2017-09-01T01:46:06.349Z,3.80
2017-09-01T01:48:32.373Z,3.80
2017-09-01T01:50:58.702Z,3.97
2017-09-01T01:53:24.744Z,3.67
2017-09-01T01:55:56.335Z,4.13
2017-09-01T01:58:22.675Z,3.83
2017-09-01T02:00:48.701Z,3.80
2017-09-01T02:03:14.734Z,3.95
2017-09-01T02:05:40.802Z,4.20
2017-09-01T02:08:06.873Z,4.20
2017-09-01T02:10:33.249Z,3.63
2017-09-01T02:12:59.278Z,3.78
2017-09-01T02:15:25.339Z,4.20
2017-09-01T02:17:51.447Z,4.00
2017-09-01T02:20:17.554Z,3.97
2017-09-01T02:22:43.697Z,4.00
2017-09-01T02:25:09.977Z,4.10
2017-09-01T02:27:36.008Z,4.20
2017-09-01T02:30:02.030Z,3.73
2017-09-01T02:32:28.290Z,3.90
2017-09-01T02:34:54.360Z,4.45
2017-09-01T02:37:20.526Z,4.10
2017-09-01T02:39:46.923Z,3.72
2017-09-01T02:42:12.954Z,4.30
2017-09-01T02:44:38.985Z,4.40
2017-09-01T02:47:05.047Z,3.90
2017-09-01T02:49:31.070Z,4.32
2017-09-01T02:51:57.096Z,4.28
2017-09-01T02:54:23.439Z,4.40
2017-09-01T02:56:49.461Z,4.07
2017-09-01T02:59:15.486Z,4.20
2017-09-01T03:01:41.538Z,4.30
2017-09-01T03:04:07.598Z,4.30
2017-09-01T03:06:33.968Z,4.70
2017-09-01T03:08:59.990Z,4.97
2017-09-01T03:11:26.014Z,5.10
2017-09-01T03:13:52.063Z,4.95
2017-09-01T03:16:18.079Z,4.70
2017-09-01T03:18:44.238Z,4.87
2017-09-01T03:21:10.367Z,4.62
2017-09-01T03:23:36.412Z,4.80
2017-09-01T03:26:02.436Z,5.10
2017-09-01T03:28:28.489Z,5.00
2017-09-01T03:30:54.530Z,5.30
2017-09-01T03:33:20.563Z,5.28
2017-09-01T03:35:46.641Z,5.47
2017-09-01T03:38:12.674Z,5.30
2017-09-01T03:40:38.690Z,5.20
2017-09-01T03:43:05.077Z,5.90
2017-09-01T03:45:31.102Z,5.72
2017-09-01T03:47:57.136Z,5.55
2017-09-01T03:50:23.198Z,5.80
2017-09-01T03:52:49.245Z,6.45
2017-09-01T03:55:15.297Z,6.45
2017-09-01T03:57:41.369Z,5.87
2017-09-01T04:00:07.467Z,6.10
2017-09-01T04:02:33.514Z,5.80
2017-09-01T04:04:59.576Z,5.90
2017-09-01T04:07:25.610Z,6.40
2017-09-01T04:09:52.382Z,6.28
2017-09-01T04:12:18.499Z,5.87
2017-09-01T04:14:44.610Z,5.97
2017-09-01T04:17:10.682Z,6.13
2017-09-01T04:19:36.755Z,6.03
2017-09-01T04:22:02.828Z,6.20
2017-09-01T04:24:28.927Z,6.25
2017-09-01T04:26:54.980Z,6.10
2017-09-01T04:29:21.010Z,6.07
2017-09-01T04:31:47.033Z,5.65
2017-09-01T04:34:13.125Z,6.17
2017-09-01T04:36:39.218Z,6.60
2017-09-01T04:39:05.371Z,6.40
2017-09-01T04:41:31.436Z,6.80
2017-09-01T04:43:57.506Z,6.10
2017-09-01T04:46:23.582Z,7.40
2017-09-01T04:48:49.611Z,6.95
2017-09-01T04:51:16.677Z,6.60
2017-09-01T04:53:42.750Z,6.40
2017-09-01T04:56:09.098Z,6.95
2017-09-01T04:58:35.179Z,7.07
2017-09-01T05:01:01.294Z,7.15
2017-09-01T05:03:27.362Z,7.40
2017-09-01T05:05:53.378Z,6.70
2017-09-01T05:08:19.833Z,7.35
2017-09-01T05:10:45.886Z,7.90
2017-09-01T05:13:11.950Z,7.30
2017-09-01T05:15:38.214Z,7.10
2017-09-01T05:18:04.259Z,6.80
2017-09-01T05:20:30.310Z,7.85
2017-09-01T05:22:56.371Z,7.60
2017-09-01T05:25:22.402Z,7.45
2017-09-01T05:27:48.449Z,7.28
2017-09-01T05:30:14.548Z,7.40
2017-09-01T05:32:40.591Z,7.62
2017-09-01T05:35:06.627Z,7.50
2017-09-01T05:37:32.694Z,6.68
2017-09-01T05:39:58.818Z,6.90
2017-09-01T05:42:24.840Z,6.50
2017-09-01T05:44:50.887Z,7.05
2017-09-01T05:47:16.955Z,7.37
2017-09-01T05:49:42.999Z,8.05
2017-09-01T05:52:09.113Z,8.27
2017-09-01T05:54:35.137Z,7.87
2017-09-01T05:57:01.176Z,7.73
2017-09-01T05:59:27.217Z,8.57
2017-09-01T06:01:53.236Z,7.70
2017-09-01T06:04:19.559Z,8.20
2017-09-01T06:06:45.618Z,8.60
2017-09-01T06:09:11.682Z,8.25
2017-09-01T06:11:37.734Z,8.40
2017-09-01T06:14:03.782Z,7.75
2017-09-01T06:16:29.830Z,9.02
2017-09-01T06:18:55.875Z,8.50
2017-09-01T06:21:21.926Z,8.35
2017-09-01T06:23:47.950Z,8.20
2017-09-01T06:26:13.974Z,8.70
2017-09-01T06:28:40.042Z,8.97
2017-09-01T06:31:06.066Z,8.65
2017-09-01T06:33:32.098Z,9.10
2017-09-01T06:35:58.461Z,10.63
2017-09-01T06:38:24.511Z,11.20
2017-09-01T06:40:50.586Z,10.47
2017-09-01T06:43:16.679Z,9.80
2017-09-01T06:45:42.706Z,8.00
2017-09-01T06:48:08.756Z,8.60
2017-09-01T06:50:34.813Z,7.78
2017-09-01T06:53:00.867Z,8.27
2017-09-01T06:55:26.881Z,9.20
2017-09-01T06:57:52.955Z,8.70
2017-09-01T07:00:18.979Z,8.10
2017-09-01T07:02:45.007Z,8.55
2017-09-01T07:05:11.062Z,8.80
2017-09-01T07:07:37.112Z,8.40
2017-09-01T07:10:03.156Z,8.90
2017-09-01T07:12:29.488Z,8.77
2017-09-01T07:14:55.565Z,8.43
2017-09-01T07:17:21.589Z,8.73
2017-09-01T07:19:47.656Z,8.77
2017-09-01T07:22:13.674Z,8.18
2017-09-01T07:24:39.736Z,7.70
2017-09-01T07:27:05.782Z,8.07
2017-09-01T07:29:31.818Z,8.95
2017-09-01T07:31:57.860Z,9.23
2017-09-01T07:34:24.110Z,8.15
2017-09-01T07:36:50.149Z,8.55
2017-09-01T07:39:16.173Z,8.02
2017-09-01T07:41:42.456Z,7.65
2017-09-01T07:44:08.486Z,7.97
2017-09-01T07:46:34.502Z,6.60
2017-09-01T07:49:00.569Z,7.40
2017-09-01T07:51:26.607Z,8.05
2017-09-01T07:53:52.656Z,7.90
2017-09-01T07:56:18.709Z,8.10
2017-09-01T07:58:44.735Z,7.68
2017-09-01T08:01:10.758Z,6.60
2017-09-01T08:03:37.151Z,6.18
2017-09-01T08:06:03.182Z,6.15
2017-09-01T08:08:29.218Z,6.70
2017-09-01T08:10:55.266Z,6.87
2017-09-01T08:13:21.305Z,6.60
2017-09-01T08:15:47.573Z,6.37
2017-09-01T08:18:13.606Z,7.07
2017-09-01T08:20:39.635Z,6.00
2017-09-01T08:23:05.705Z,6.37
2017-09-01T08:25:31.724Z,5.95
2017-09-01T08:27:58.091Z,6.10
2017-09-01T08:30:24.113Z,6.10
2017-09-01T08:32:50.139Z,5.50
2017-09-01T08:35:16.463Z,5.80
2017-09-01T08:37:42.469Z,5.15
2017-09-01T08:40:08.486Z,5.10
2017-09-01T08:42:34.941Z,5.62
2017-09-01T08:45:00.962Z,5.03
2017-09-01T08:47:34.356Z,5.13
2017-09-01T08:50:00.409Z,5.12
2017-09-01T08:52:26.450Z,4.82
2017-09-01T08:54:52.498Z,4.75
2017-09-01T08:57:18.527Z,5.05
2017-09-01T08:59:44.539Z,5.25
2017-09-01T09:02:10.583Z,15.82
2017-09-01T09:04:36.812Z,227.23
2017-09-01T09:07:02.842Z,116.05
2017-09-01T09:09:28.859Z,66.75
2017-09-01T09:11:55.074Z,9.27
2017-09-01T09:14:21.096Z,6.17
2017-09-01T09:16:47.123Z,4.87
2017-09-01T09:19:13.166Z,6.27
2017-09-01T09:21:39.194Z,4.20
2017-09-01T09:24:05.210Z,4.75
2017-09-01T09:26:31.258Z,3.90
2017-09-01T09:28:57.274Z,4.30
2017-09-01T09:31:23.318Z,3.90
2017-09-01T09:33:49.366Z,3.87
2017-09-01T09:36:15.391Z,4.05
2017-09-01T09:38:41.477Z,4.30
2017-09-01T09:41:07.513Z,3.70
2017-09-01T09:43:33.866Z,4.03
2017-09-01T09:45:59.907Z,4.00
2017-09-01T09:48:25.937Z,4.00
2017-09-01T09:50:51.958Z,4.18
2017-09-01T09:53:17.973Z,4.00
2017-09-01T09:55:44.042Z,3.90
2017-09-01T09:58:10.079Z,4.10
2017-09-01T10:00:36.123Z,3.83
2017-09-01T10:03:02.367Z,4.00
2017-09-01T10:05:28.398Z,3.80
2017-09-01T10:07:54.531Z,4.00
2017-09-01T10:10:20.609Z,6.00
2017-09-01T10:12:46.658Z,5.70
2017-09-01T10:15:12.717Z,5.00
2017-09-01T10:17:38.781Z,4.30
2017-09-01T10:20:04.817Z,4.40
2017-09-01T10:22:30.825Z,3.35
2017-09-01T10:24:56.898Z,3.30
2017-09-01T10:27:22.926Z,3.00
2017-09-01T10:29:48.949Z,3.70
2017-09-01T10:32:15.033Z,3.45
2017-09-01T10:34:41.038Z,3.40
2017-09-01T10:37:07.063Z,3.80
2017-09-01T10:39:33.110Z,3.05
2017-09-01T10:41:59.131Z,3.20
2017-09-01T10:44:25.198Z,3.42
2017-09-01T10:46:51.443Z,3.67
2017-09-01T10:52:38.539Z,3.10
2017-09-01T10:55:17.042Z,3.75
2017-09-01T10:57:55.806Z,3.45
2017-09-01T11:00:21.827Z,3.60
2017-09-01T11:02:47.854Z,3.33
2017-09-01T11:05:13.898Z,3.50
2017-09-01T11:07:39.915Z,3.42
2017-09-01T11:10:05.943Z,3.97
2017-09-01T11:12:31.989Z,3.47
2017-09-01T11:14:58.009Z,3.72
2017-09-01T11:17:24.034Z,3.58
2017-09-01T11:19:58.178Z,3.60
2017-09-01T11:22:30.238Z,3.40
2017-09-01T11:24:56.295Z,3.40
2017-09-01T11:27:22.722Z,3.50
2017-09-01T11:29:48.742Z,3.40
2017-09-01T11:32:14.784Z,3.20
2017-09-01T11:34:40.801Z,3.53
2017-09-01T11:37:06.814Z,3.80
2017-09-01T11:39:32.872Z,3.60
2017-09-01T11:41:58.870Z,3.65
2017-09-01T11:44:24.902Z,3.65
2017-09-01T11:46:51.462Z,3.87
2017-09-01T11:49:17.583Z,4.53
2017-09-01T11:51:43.666Z,3.90
2017-09-01T11:54:10.066Z,4.13
2017-09-01T11:56:36.115Z,3.53
2017-09-01T11:59:02.166Z,3.30
2017-09-01T12:01:28.250Z,3.80
2017-09-01T12:03:54.259Z,4.03
2017-09-01T12:06:20.272Z,3.50
2017-09-01T12:08:46.345Z,3.90
2017-09-01T12:11:12.435Z,3.60
2017-09-01T12:13:38.450Z,3.90
2017-09-01T12:16:04.479Z,3.75
2017-09-01T12:18:30.503Z,3.47
2017-09-01T12:20:56.534Z,3.35
2017-09-01T12:23:22.828Z,3.50
2017-09-01T12:25:48.855Z,3.70
2017-09-01T12:28:14.870Z,3.20
2017-09-01T12:30:40.921Z,3.30
2017-09-01T12:33:06.941Z,4.22
2017-09-01T12:35:32.958Z,3.30
2017-09-01T12:37:59.000Z,3.50
2017-09-01T12:40:25.022Z,3.40
2017-09-01T12:42:51.050Z,3.20
2017-09-01T12:45:17.326Z,3.50
2017-09-01T12:47:43.700Z,3.70
2017-09-01T12:50:09.762Z,4.50
2017-09-01T12:52:35.815Z,5.43
2017-09-01T12:55:01.854Z,4.20
2017-09-01T12:57:27.946Z,3.37
2017-09-01T12:59:54.289Z,4.30
2017-09-01T13:02:20.307Z,3.67
2017-09-01T13:04:46.340Z,3.55
2017-09-01T13:07:12.746Z,3.30
2017-09-01T13:09:38.787Z,3.35
2017-09-01T13:12:04.871Z,3.78
2017-09-01T13:14:30.941Z,3.90
2017-09-01T13:16:56.960Z,4.40
2017-09-01T13:19:22.986Z,4.10
2017-09-01T13:21:49.420Z,3.95
2017-09-01T13:24:15.435Z,3.70
2017-09-01T13:26:41.457Z,3.70
2017-09-01T13:29:07.536Z,3.40
2017-09-01T13:31:33.575Z,3.45
2017-09-01T13:33:59.620Z,3.70
2017-09-01T13:36:25.670Z,3.00
2017-09-01T13:38:51.690Z,3.10
2017-09-01T13:41:17.724Z,3.40
2017-09-01T13:43:43.751Z,3.17
2017-09-01T13:46:09.799Z,3.37
2017-09-01T13:48:36.199Z,3.60
2017-09-01T13:51:02.259Z,4.45
2017-09-01T13:53:28.297Z,4.20
2017-09-01T13:55:54.326Z,4.10
2017-09-01T13:58:20.339Z,3.80
2017-09-01T14:00:46.353Z,4.00
2017-09-01T14:03:12.406Z,4.03
2017-09-01T14:05:38.429Z,4.35
2017-09-01T14:08:04.477Z,4.53
2017-09-01T14:10:30.586Z,4.43
2017-09-01T14:12:56.611Z,5.20
2017-09-01T14:15:23.845Z,4.90
2017-09-01T14:17:49.961Z,5.32
2017-09-01T14:20:15.982Z,4.10
2017-09-01T14:22:42.001Z,4.80
2017-09-01T14:25:08.050Z,4.70
2017-09-01T14:27:34.092Z,4.10
2017-09-01T14:30:00.138Z,4.10
2017-09-01T14:32:26.352Z,4.45
2017-09-01T14:34:52.373Z,3.90
2017-09-01T14:37:18.459Z,4.18
2017-09-01T14:40:05.470Z,3.80
2017-09-01T14:42:31.772Z,5.72
2017-09-01T14:44:57.847Z,6.20
2017-09-01T14:47:24.328Z,21.23
2017-09-01T14:49:50.900Z,7.82
2017-09-01T14:52:19.473Z,5.80
2017-09-01T14:54:47.444Z,5.10
2017-09-01T14:57:13.505Z,4.80
2017-09-01T14:59:40.270Z,3.65
2017-09-01T15:02:06.444Z,9.20
2017-09-01T15:04:32.496Z,6.47
2017-09-01T15:06:58.890Z,6.05
2017-09-01T15:09:29.243Z,4.35
2017-09-01T15:11:55.666Z,4.13
2017-09-01T15:14:21.840Z,4.20
2017-09-01T15:16:48.120Z,3.58
2017-09-01T15:19:14.159Z,7.75
2017-09-01T15:21:40.195Z,3.80
2017-09-01T15:24:06.287Z,3.67
2017-09-01T15:26:32.330Z,4.20
2017-09-01T15:28:58.352Z,4.33
2017-09-01T15:31:24.396Z,4.00
2017-09-01T15:33:50.422Z,4.07
2017-09-01T15:36:16.448Z,3.80
2017-09-01T15:38:42.782Z,2.90
2017-09-01T15:41:08.838Z,3.15
2017-09-01T15:43:34.867Z,3.70
2017-09-01T15:46:01.170Z,4.05
2017-09-01T15:48:27.202Z,3.80
2017-09-01T15:50:53.225Z,3.17
2017-09-01T15:53:19.466Z,3.17
2017-09-01T15:55:45.500Z,3.00
2017-09-01T15:58:11.533Z,3.37
2017-09-01T16:00:37.842Z,3.60
2017-09-01T16:03:03.883Z,3.12
2017-09-01T16:05:29.910Z,2.80
2017-09-01T16:07:55.975Z,3.40
2017-09-01T16:10:22.070Z,3.80
2017-09-01T16:12:48.114Z,3.70
2017-09-01T16:15:14.188Z,3.30
2017-09-01T16:17:40.406Z,3.23
2017-09-01T16:20:06.428Z,3.60
2017-09-01T16:22:32.442Z,2.60
2017-09-01T16:24:58.546Z,3.30
2017-09-01T16:27:24.580Z,3.40
2017-09-01T16:29:50.626Z,3.50
2017-09-01T16:32:16.666Z,3.90
2017-09-01T16:34:42.698Z,3.60
2017-09-01T16:37:08.721Z,3.12
2017-09-01T16:39:34.766Z,4.55
2017-09-01T16:42:00.813Z,4.20
2017-09-01T16:44:26.838Z,4.00
2017-09-01T16:46:52.890Z,3.80
2017-09-01T16:49:18.913Z,3.60
2017-09-01T16:51:44.942Z,3.67
2017-09-01T16:54:11.017Z,4.50
2017-09-01T16:56:37.034Z,4.68
2017-09-01T16:59:03.055Z,4.40
2017-09-01T17:01:29.135Z,3.80
2017-09-01T17:03:55.166Z,3.70
2017-09-01T17:06:21.203Z,3.62
2017-09-01T17:08:47.254Z,3.33
2017-09-01T17:11:13.271Z,3.25
2017-09-01T17:13:39.315Z,3.40
2017-09-01T17:16:05.733Z,3.45
2017-09-01T17:18:31.790Z,4.00
2017-09-01T17:20:57.838Z,3.80
2017-09-01T17:23:24.087Z,3.80
2017-09-01T17:25:50.130Z,3.78
2017-09-01T17:28:16.167Z,3.45
2017-09-01T17:30:42.257Z,3.58
2017-09-01T17:33:08.280Z,3.20
2017-09-01T17:35:34.318Z,3.50
2017-09-01T17:38:00.522Z,3.50
2017-09-01T17:40:26.547Z,3.60
2017-09-01T17:42:52.564Z,3.20
2017-09-01T17:45:18.902Z,3.50
2017-09-01T17:47:44.936Z,5.32
2017-09-01T17:50:10.970Z,5.93
2017-09-01T17:52:37.275Z,4.05
2017-09-01T17:55:03.566Z,3.97
2017-09-01T17:57:29.619Z,3.40
2017-09-01T17:59:55.669Z,4.27
2017-09-01T18:02:21.742Z,3.70
2017-09-01T18:04:47.811Z,3.80
2017-09-01T18:07:14.214Z,4.35
2017-09-01T18:09:40.239Z,4.68
2017-09-01T18:12:06.340Z,4.28
2017-09-01T18:14:32.376Z,4.22
2017-09-01T18:16:58.420Z,3.92
2017-09-01T18:19:24.446Z,4.10
2017-09-01T18:21:50.490Z,3.97
2017-09-01T18:24:16.554Z,4.03
2017-09-01T18:26:42.614Z,4.07
2017-09-01T18:29:08.638Z,4.00
2017-09-01T18:31:34.986Z,4.20
2017-09-01T18:34:01.094Z,3.80
2017-09-01T18:36:27.135Z,4.20
2017-09-01T18:38:53.175Z,4.97
2017-09-01T18:41:19.235Z,5.15
2017-09-01T18:43:45.262Z,5.65
2017-09-01T18:46:11.305Z,5.57
2017-09-01T18:48:37.335Z,5.62
2017-09-01T18:51:03.622Z,5.20
2017-09-01T18:53:29.719Z,5.43
2017-09-01T18:55:55.743Z,5.62
2017-09-01T18:58:21.995Z,5.28
2017-09-01T19:00:48.018Z,5.20
2017-09-01T19:03:14.052Z,6.05
2017-09-01T19:05:40.104Z,5.80
2017-09-01T19:08:06.149Z,6.35
2017-09-01T19:10:32.172Z,6.00
2017-09-01T19:12:58.446Z,5.55
2017-09-01T19:15:24.499Z,5.77
2017-09-01T19:17:50.523Z,5.95
2017-09-01T19:20:16.601Z,5.30
2017-09-01T19:22:42.643Z,6.28
2017-09-01T19:25:08.671Z,6.10
2017-09-01T19:27:34.743Z,6.18
2017-09-01T19:30:00.794Z,6.10
2017-09-01T19:32:26.829Z,6.22
2017-09-01T19:34:52.873Z,6.30
2017-09-01T19:37:18.923Z,6.60
2017-09-01T19:39:44.974Z,6.20
2017-09-01T19:42:11.095Z,6.53
2017-09-01T19:44:37.127Z,6.20
2017-09-01T19:47:03.202Z,6.10
2017-09-01T19:49:29.456Z,6.40
2017-09-01T19:51:55.486Z,6.20
2017-09-01T19:54:21.551Z,5.70
2017-09-01T19:56:47.922Z,6.20
2017-09-01T19:59:14.023Z,5.70
2017-09-01T20:01:40.058Z,5.77
2017-09-01T20:04:06.110Z,5.93
2017-09-01T20:06:32.148Z,5.10
2017-09-01T20:08:58.198Z,5.47
2017-09-01T20:11:24.294Z,5.00
2017-09-01T20:13:50.434Z,5.00
2017-09-01T20:16:16.485Z,4.70
2017-09-01T20:18:42.521Z,5.82
2017-09-01T20:21:08.548Z,56.57
2017-09-01T20:23:34.783Z,63.13
2017-09-01T20:26:00.828Z,113.62
2017-09-01T20:28:26.862Z,77.40
2017-09-01T20:30:52.963Z,75.40
2017-09-01T20:33:19.030Z,48.10
2017-09-01T20:35:45.095Z,42.00
2017-09-01T20:38:11.156Z,134.10
2017-09-01T20:40:37.205Z,99.20
2017-09-01T20:43:03.245Z,142.80
2017-09-01T20:45:29.306Z,87.97
2017-09-01T20:47:55.346Z,70.90
2017-09-01T20:50:21.401Z,51.45
2017-09-01T20:52:47.456Z,26.92
2017-09-01T20:55:13.508Z,7.40
2017-09-01T20:57:39.562Z,6.70
2017-09-01T21:00:05.600Z,6.75
2017-09-01T21:02:31.643Z,6.32
2017-09-01T21:04:57.778Z,6.20
2017-09-01T21:07:23.856Z,6.20
2017-09-01T21:09:49.895Z,6.97
2017-09-01T21:12:16.132Z,6.43
2017-09-01T21:14:42.173Z,7.20
2017-09-01T21:17:08.206Z,6.72
2017-09-01T21:19:34.426Z,7.60
2017-09-01T21:22:00.472Z,7.00
2017-09-01T21:24:26.526Z,185.75
2017-09-01T21:26:52.591Z,213.70
2017-09-01T21:29:18.754Z,43.40
2017-09-01T21:31:44.940Z,6.63
2017-09-01T21:34:11.274Z,5.90
2017-09-01T21:36:37.426Z,6.40
2017-09-01T21:39:03.754Z,6.60
2017-09-01T21:41:29.990Z,6.20
2017-09-01T21:43:56.938Z,7.35
2017-09-01T21:46:23.089Z,6.90
2017-09-01T21:48:49.286Z,6.55
2017-09-01T21:51:15.460Z,5.95
2017-09-01T21:53:41.621Z,5.50
2017-09-01T21:56:07.866Z,5.70
2017-09-01T21:58:34.071Z,5.20
2017-09-01T22:01:12.512Z,5.28
2017-09-01T22:03:38.654Z,5.10
2017-09-01T22:06:04.932Z,4.85
2017-09-01T22:08:31.152Z,4.90
2017-09-01T22:10:57.340Z,4.97
2017-09-01T22:13:23.449Z,4.70
2017-09-01T22:15:49.675Z,5.00
2017-09-01T22:18:15.936Z,5.35
2017-09-01T22:20:42.146Z,5.40
2017-09-01T22:23:09.293Z,5.33
2017-09-01T22:25:35.374Z,5.50
2017-09-01T22:28:01.522Z,5.62
2017-09-01T22:30:27.570Z,5.32
2017-09-01T22:32:53.587Z,5.23
2017-09-01T22:35:19.615Z,5.05
2017-09-01T22:37:45.826Z,5.20
2017-09-01T22:40:11.846Z,5.15
2017-09-01T22:42:37.858Z,4.70
2017-09-01T22:45:03.910Z,4.97
2017-09-01T22:47:29.930Z,4.93
2017-09-01T22:49:55.966Z,4.80
2017-09-01T22:52:22.007Z,4.40
2017-09-01T22:54:48.046Z,4.70
2017-09-01T22:57:14.098Z,4.30
2017-09-01T22:59:40.316Z,4.40
2017-09-01T23:02:06.333Z,4.10
2017-09-01T23:04:32.361Z,4.12
2017-09-01T23:06:58.920Z,3.87
2017-09-01T23:09:24.963Z,3.80
2017-09-01T23:11:51.022Z,4.10
2017-09-01T23:14:17.059Z,4.30
2017-09-01T23:16:43.079Z,4.03
2017-09-01T23:19:09.100Z,3.97
2017-09-01T23:21:35.848Z,3.80
2017-09-01T23:24:01.886Z,4.00
2017-09-01T23:26:27.917Z,4.12
2017-09-01T23:28:53.945Z,3.83
2017-09-01T23:31:19.965Z,4.00
2017-09-01T23:33:46.032Z,4.25
2017-09-01T23:36:12.053Z,3.80
2017-09-01T23:38:38.050Z,3.80
2017-09-01T23:41:04.076Z,3.60
2017-09-01T23:43:30.085Z,3.90
2017-09-01T23:45:56.136Z,3.85
2017-09-01T23:48:22.166Z,4.20
2017-09-01T23:50:48.213Z,4.30
2017-09-01T23:53:14.232Z,4.10
2017-09-01T23:55:40.254Z,4.25
2017-09-01T23:58:06.292Z,4.20
